createdAt,value
2023-03-20T00:01:24.199Z,44.30
2023-03-20T00:06:21.406Z,41.40
2023-03-20T00:08:50.729Z,43.10
2023-03-20T00:11:31.530Z,42.30
2023-03-20T00:14:03.146Z,43.80
2023-03-20T00:16:36.258Z,45.40
2023-03-20T00:19:04.203Z,41.30
2023-03-20T00:21:31.696Z,41.00
2023-03-20T00:23:59.092Z,42.80
2023-03-20T00:26:31.586Z,45.00
2023-03-20T00:28:58.660Z,61.10
2023-03-20T00:31:29.363Z,57.80
2023-03-20T00:34:01.728Z,57.10
2023-03-20T00:36:28.960Z,65.50
2023-03-20T00:38:59.624Z,53.80
2023-03-20T00:41:46.627Z,49.20
2023-03-20T00:44:37.206Z,51.30
2023-03-20T00:47:12.646Z,58.30
2023-03-20T00:49:39.487Z,58.80
2023-03-20T00:52:09.211Z,60.20
2023-03-20T00:54:36.433Z,52.00
2023-03-20T00:57:18.722Z,49.00
2023-03-20T01:00:02.461Z,46.10
2023-03-20T01:02:31.527Z,47.30
2023-03-20T01:05:00.025Z,42.20
2023-03-20T01:07:28.050Z,42.10
2023-03-20T01:09:58.746Z,43.10
2023-03-20T01:12:25.839Z,43.30
2023-03-20T01:14:57.227Z,48.50
2023-03-20T01:17:26.323Z,43.80
2023-03-20T01:19:53.414Z,46.60
2023-03-20T01:22:20.750Z,45.00
2023-03-20T01:24:48.168Z,42.50
2023-03-20T01:27:17.811Z,41.80
2023-03-20T01:29:44.819Z,42.60
2023-03-20T01:32:14.883Z,41.60
2023-03-20T01:34:42.585Z,43.70
2023-03-20T01:37:13.887Z,42.90
2023-03-20T01:39:41.286Z,41.20
2023-03-20T01:42:08.412Z,42.00
2023-03-20T01:44:36.533Z,42.90
2023-03-20T01:47:16.063Z,44.70
2023-03-20T01:50:22.514Z,40.90
2023-03-20T01:52:57.474Z,41.70
2023-03-20T01:55:25.558Z,40.30
2023-03-20T01:58:00.045Z,40.40
2023-03-20T02:00:27.363Z,41.00
2023-03-20T02:02:55.666Z,41.10
2023-03-20T02:05:48.910Z,40.90
2023-03-20T02:08:37.692Z,42.40
2023-03-20T02:11:05.540Z,40.30
2023-03-20T02:13:33.260Z,39.20
2023-03-20T02:17:05.658Z,40.20
2023-03-20T02:20:04.419Z,47.20
2023-03-20T02:22:53.072Z,48.60
2023-03-20T02:25:44.425Z,46.30
2023-03-20T02:28:39.822Z,44.40
2023-03-20T02:31:21.843Z,44.10
2023-03-20T02:34:26.177Z,44.60
2023-03-20T02:37:18.144Z,41.50
2023-03-20T02:40:05.929Z,41.10
2023-03-20T02:42:45.783Z,41.10
2023-03-20T02:50:19.334Z,41.60
2023-03-20T02:53:06.839Z,41.40
2023-03-20T02:55:45.241Z,39.60
2023-03-20T02:58:24.472Z,38.20
2023-03-20T03:01:01.778Z,38.30
2023-03-20T03:03:34.579Z,37.00
2023-03-20T03:06:11.231Z,38.00
2023-03-20T03:08:43.492Z,36.20
2023-03-20T03:11:10.646Z,37.00
2023-03-20T03:13:44.018Z,35.40
2023-03-20T03:16:16.606Z,36.00
2023-03-20T03:18:46.853Z,36.10
2023-03-20T03:21:18.829Z,36.20
2023-03-20T03:23:48.820Z,36.80
2023-03-20T03:26:22.968Z,37.00
2023-03-20T03:28:56.985Z,35.80
2023-03-20T03:31:25.500Z,37.10
2023-03-20T03:33:55.693Z,36.90
2023-03-20T03:36:26.279Z,37.60
2023-03-20T03:39:13.305Z,34.50
2023-03-20T03:41:46.364Z,34.90
2023-03-20T03:44:35.360Z,35.40
2023-03-20T03:47:21.398Z,35.00
2023-03-20T03:49:58.710Z,37.10
2023-03-20T03:52:28.470Z,37.40
2023-03-20T03:57:45.894Z,36.90
2023-03-20T04:00:19.900Z,35.40
2023-03-20T04:02:53.521Z,36.20
2023-03-20T04:05:22.126Z,36.70
2023-03-20T04:07:55.042Z,35.30
2023-03-20T04:10:22.261Z,36.60
2023-03-20T04:12:49.153Z,36.10
2023-03-20T04:15:17.114Z,36.90
2023-03-20T04:17:44.562Z,37.60
2023-03-20T04:20:13.506Z,38.30
2023-03-20T04:22:40.783Z,35.60
2023-03-20T04:25:20.215Z,36.80
2023-03-20T04:27:47.648Z,36.50
2023-03-20T04:30:25.088Z,35.20
2023-03-20T04:33:21.926Z,35.50
2023-03-20T04:36:12.659Z,35.00
2023-03-20T04:38:40.715Z,36.60
2023-03-20T04:41:08.961Z,37.10
2023-03-20T04:43:35.983Z,37.10
2023-03-20T04:46:02.969Z,35.40
2023-03-20T04:48:29.887Z,37.00
2023-03-20T04:50:57.624Z,36.60
2023-03-20T04:53:30.444Z,41.70
2023-03-20T04:55:57.269Z,46.90
2023-03-20T04:58:25.934Z,35.80
2023-03-20T05:00:52.877Z,41.90
2023-03-20T05:03:22.544Z,40.90
2023-03-20T05:05:51.094Z,37.10
2023-03-20T05:08:18.518Z,36.10
2023-03-20T05:10:45.645Z,36.90
2023-03-20T05:13:45.105Z,39.90
2023-03-20T05:16:41.602Z,37.80
2023-03-20T05:19:31.117Z,39.10
2023-03-20T05:22:07.235Z,37.10
2023-03-20T05:24:40.298Z,46.20
2023-03-20T05:27:36.444Z,43.60
2023-03-20T05:30:21.898Z,43.50
2023-03-20T05:33:08.525Z,45.30
2023-03-20T05:35:46.605Z,49.80
2023-03-20T05:38:39.980Z,49.10
2023-03-20T05:41:29.742Z,45.80
2023-03-20T05:44:19.349Z,47.40
2023-03-20T05:47:06.799Z,50.30
2023-03-20T05:49:57.847Z,47.90
2023-03-20T05:52:34.823Z,44.60
2023-03-20T05:55:12.224Z,43.00
2023-03-20T05:57:48.747Z,43.80
2023-03-20T06:00:48.113Z,42.00
2023-03-20T06:03:41.432Z,38.40
2023-03-20T06:06:12.156Z,39.60
2023-03-20T06:08:39.165Z,39.10
2023-03-20T06:11:06.932Z,38.70
2023-03-20T06:13:35.772Z,38.40
2023-03-20T06:16:02.659Z,40.80
2023-03-20T06:18:29.680Z,38.90
2023-03-20T06:20:57.826Z,40.20
2023-03-20T06:23:26.233Z,39.10
2023-03-20T06:25:53.477Z,40.80
2023-03-20T06:28:20.740Z,38.80
2023-03-20T06:30:51.952Z,39.10
2023-03-20T06:33:19.148Z,37.30
2023-03-20T06:35:59.582Z,38.00
2023-03-20T06:38:27.755Z,36.80
2023-03-20T06:40:54.800Z,36.10
2023-03-20T06:43:22.743Z,36.00
2023-03-20T06:45:51.848Z,36.10
2023-03-20T06:48:22.405Z,33.90
2023-03-20T06:50:50.883Z,33.60
2023-03-20T06:53:20.150Z,34.00
2023-03-20T06:55:55.032Z,33.90
2023-03-20T06:58:21.846Z,32.00
2023-03-20T07:00:50.416Z,32.10
2023-03-20T07:03:17.568Z,30.50
2023-03-20T07:05:46.330Z,30.50
2023-03-20T07:08:13.319Z,31.50
2023-03-20T07:10:40.209Z,31.00
2023-03-20T07:13:07.152Z,30.90
2023-03-20T07:15:35.276Z,32.20
2023-03-20T07:18:02.877Z,30.10
2023-03-20T07:20:29.955Z,29.70
2023-03-20T07:22:56.899Z,30.30
2023-03-20T07:25:41.306Z,27.90
2023-03-20T07:28:09.433Z,30.00
2023-03-20T07:30:37.637Z,30.40
2023-03-20T07:33:05.196Z,28.20
2023-03-20T07:35:33.140Z,29.40
2023-03-20T07:38:00.633Z,28.80
2023-03-20T07:40:28.359Z,28.00
2023-03-20T07:42:59.087Z,31.60
2023-03-20T07:45:48.706Z,28.30
2023-03-20T07:48:19.394Z,27.90
2023-03-20T07:50:46.365Z,29.50
2023-03-20T07:53:13.510Z,30.10
2023-03-20T07:55:40.875Z,29.10
2023-03-20T07:58:10.179Z,27.40
2023-03-20T08:00:37.109Z,28.00
2023-03-20T08:03:04.609Z,28.20
2023-03-20T08:05:31.684Z,28.30
2023-03-20T08:07:58.706Z,28.60
2023-03-20T08:10:25.913Z,27.60
2023-03-20T08:12:52.800Z,26.60
2023-03-20T08:15:19.706Z,28.10
2023-03-20T08:17:46.932Z,26.30
2023-03-20T08:20:16.472Z,28.90
2023-03-20T08:25:14.170Z,28.40
2023-03-20T08:27:41.217Z,25.00
2023-03-20T08:30:09.810Z,27.50
2023-03-20T08:32:36.998Z,28.30
2023-03-20T08:35:04.169Z,25.10
2023-03-20T08:37:31.219Z,27.20
2023-03-20T08:39:58.052Z,31.80
2023-03-20T08:42:24.954Z,28.30
2023-03-20T08:44:52.175Z,23.40
2023-03-20T08:47:19.766Z,23.80
2023-03-20T08:49:46.603Z,22.20
2023-03-20T08:52:14.958Z,22.70
2023-03-20T08:54:41.879Z,23.50
2023-03-20T08:57:08.879Z,21.60
2023-03-20T08:59:35.769Z,21.40
2023-03-20T09:02:02.706Z,22.60
2023-03-20T09:04:29.890Z,21.80
2023-03-20T09:06:57.306Z,22.70
2023-03-20T09:09:29.699Z,23.20
2023-03-20T09:12:01.685Z,22.20
2023-03-20T09:14:29.530Z,22.30
2023-03-20T09:16:56.484Z,21.90
2023-03-20T09:19:23.487Z,24.10
2023-03-20T09:21:50.370Z,23.40
2023-03-20T09:24:17.378Z,19.60
2023-03-20T09:26:44.421Z,22.50
2023-03-20T09:29:11.449Z,22.20
2023-03-20T09:31:38.568Z,22.90
2023-03-20T09:34:05.646Z,23.00
2023-03-20T09:36:33.815Z,21.40
2023-03-20T09:39:01.160Z,21.60
2023-03-20T09:41:28.588Z,21.90
2023-03-20T09:44:28.913Z,19.70
2023-03-20T09:47:23.831Z,18.40
2023-03-20T09:50:14.893Z,19.40
2023-03-20T09:52:57.594Z,20.00
2023-03-20T09:55:33.865Z,19.80
2023-03-20T09:58:24.689Z,18.90
2023-03-20T10:00:52.103Z,19.30
2023-03-20T10:03:28.408Z,17.70
2023-03-20T10:06:03.744Z,17.80
2023-03-20T10:08:36.685Z,19.70
2023-03-20T10:11:16.375Z,19.10
2023-03-20T10:16:35.295Z,20.40
2023-03-20T10:19:11.894Z,20.60
2023-03-20T10:21:47.385Z,20.20
2023-03-20T10:24:28.890Z,18.60
2023-03-20T10:27:01.607Z,22.90
2023-03-20T10:29:59.729Z,21.90
2023-03-20T10:32:33.152Z,23.70
2023-03-20T10:35:09.038Z,22.90
2023-03-20T10:38:12.081Z,23.40
2023-03-20T10:40:41.970Z,25.10
2023-03-20T10:43:27.340Z,22.10
2023-03-20T10:46:17.571Z,20.80
2023-03-20T10:48:52.439Z,24.00
2023-03-20T10:51:23.561Z,17.60
2023-03-20T10:54:01.321Z,17.00
2023-03-20T10:56:39.604Z,20.20
2023-03-20T10:59:27.749Z,19.00
2023-03-20T11:01:54.913Z,13.60
2023-03-20T11:04:21.981Z,16.30
2023-03-20T11:07:07.304Z,16.10
2023-03-20T11:09:34.296Z,14.40
2023-03-20T11:12:03.877Z,15.70
2023-03-20T11:17:07.127Z,12.00
2023-03-20T11:19:40.575Z,16.30
2023-03-20T11:22:26.557Z,12.10
2023-03-20T11:25:01.763Z,13.00
2023-03-20T11:27:34.759Z,13.40
2023-03-20T11:30:08.565Z,18.60
2023-03-20T11:32:47.757Z,14.60
2023-03-20T11:35:24.151Z,17.30
2023-03-20T11:37:54.191Z,14.00
2023-03-20T11:40:34.506Z,16.10
2023-03-20T11:43:01.730Z,19.60
2023-03-20T11:45:44.919Z,20.70
2023-03-20T11:48:19.476Z,17.00
2023-03-20T11:50:52.934Z,19.00
2023-03-20T11:53:28.817Z,18.00
2023-03-20T11:56:21.025Z,18.70
2023-03-20T11:59:03.669Z,19.30
2023-03-20T12:01:58.219Z,19.20
2023-03-20T12:04:37.844Z,19.70
2023-03-20T12:07:17.691Z,20.90
2023-03-20T12:09:53.790Z,21.70
2023-03-20T12:12:45.901Z,20.90
2023-03-20T12:15:17.735Z,22.00
2023-03-20T12:17:56.936Z,22.30
2023-03-20T12:20:55.584Z,22.10
2023-03-20T12:23:44.572Z,16.80
2023-03-20T12:26:15.526Z,23.50
2023-03-20T12:28:45.643Z,19.40
2023-03-20T12:31:27.044Z,18.30
2023-03-20T12:34:17.508Z,24.00
2023-03-20T12:36:47.535Z,24.80
2023-03-20T12:39:18.856Z,24.00
2023-03-20T12:42:07.527Z,27.20
2023-03-20T12:45:01.238Z,24.20
2023-03-20T12:48:00.268Z,21.20
2023-03-20T12:50:40.095Z,23.10
2023-03-20T12:58:53.652Z,26.90
2023-03-20T13:01:26.636Z,25.70
2023-03-20T13:04:05.813Z,24.90
2023-03-20T13:06:52.109Z,23.90
2023-03-20T13:09:23.278Z,26.40
2023-03-20T13:12:05.204Z,26.70
2023-03-20T13:14:49.085Z,27.70
2023-03-20T13:17:29.671Z,27.90
2023-03-20T13:20:17.950Z,28.30
2023-03-20T13:22:54.065Z,30.20
2023-03-20T13:25:49.159Z,30.10
2023-03-20T13:28:23.478Z,30.10
2023-03-20T13:30:53.234Z,29.80
2023-03-20T13:33:36.430Z,29.40
2023-03-20T13:36:25.723Z,30.80
2023-03-20T13:39:01.210Z,30.40
2023-03-20T13:41:29.133Z,29.70
2023-03-20T13:44:02.089Z,29.80
2023-03-20T13:46:44.900Z,29.50
2023-03-20T13:49:59.054Z,27.40
2023-03-20T13:52:31.466Z,28.10
2023-03-20T13:55:36.311Z,29.30
2023-03-20T13:58:09.359Z,28.60
2023-03-20T14:00:36.571Z,28.50
2023-03-20T14:03:26.338Z,28.00
2023-03-20T14:05:53.422Z,28.20
2023-03-20T14:08:38.571Z,27.90
2023-03-20T14:11:13.563Z,29.80
2023-03-20T14:14:07.751Z,28.90
2023-03-20T14:16:34.681Z,27.60
2023-03-20T14:19:21.845Z,27.20
2023-03-20T14:21:52.365Z,28.60
2023-03-20T14:24:21.115Z,28.20
2023-03-20T14:27:00.220Z,26.10
2023-03-20T14:29:30.428Z,26.60
2023-03-20T14:32:24.294Z,25.50
2023-03-20T14:35:14.929Z,25.20
2023-03-20T14:38:21.623Z,24.20
2023-03-20T14:41:27.673Z,24.10
2023-03-20T14:44:03.816Z,25.20
2023-03-20T14:46:39.691Z,24.90
2023-03-20T14:49:48.859Z,25.90
2023-03-20T14:52:53.695Z,27.60
2023-03-20T14:55:20.731Z,27.60
2023-03-20T14:57:56.425Z,31.50
2023-03-20T15:00:27.592Z,30.30
2023-03-20T15:03:07.352Z,33.90
2023-03-20T15:05:37.245Z,35.60
2023-03-20T15:08:11.604Z,35.70
2023-03-20T15:10:47.655Z,34.20
2023-03-20T15:13:16.988Z,34.40
2023-03-20T15:15:58.049Z,37.20
2023-03-20T15:18:27.673Z,38.90
2023-03-20T15:20:58.030Z,36.90
2023-03-20T15:23:27.175Z,33.90
2023-03-20T15:25:54.064Z,34.20
2023-03-20T15:28:27.783Z,34.20
2023-03-20T15:30:59.687Z,34.20
2023-03-20T15:33:28.670Z,34.20
2023-03-20T15:35:56.791Z,31.80
2023-03-20T15:38:30.721Z,31.50
2023-03-20T15:40:58.185Z,34.40
2023-03-20T15:43:26.940Z,33.50
2023-03-20T15:46:16.930Z,33.20
2023-03-20T15:48:49.189Z,32.90
2023-03-20T15:51:17.516Z,32.00
2023-03-20T15:53:47.882Z,30.70
2023-03-20T15:56:19.576Z,32.50
2023-03-20T15:58:52.584Z,34.10
2023-03-20T16:01:23.425Z,28.30
2023-03-20T16:03:52.311Z,27.00
2023-03-20T16:06:25.734Z,30.40
2023-03-20T16:09:08.546Z,33.10
2023-03-20T16:11:41.569Z,30.80
2023-03-20T16:14:15.009Z,33.40
2023-03-20T16:16:42.642Z,29.00
2023-03-20T16:19:13.176Z,32.50
2023-03-20T16:21:44.992Z,24.80
2023-03-20T16:24:20.662Z,22.60
2023-03-20T16:26:51.519Z,19.90
2023-03-20T16:29:22.894Z,11.70
2023-03-20T16:31:59.773Z,11.30
2023-03-20T16:34:35.893Z,10.40
2023-03-20T16:37:08.561Z,9.60
2023-03-20T16:39:35.632Z,10.30
2023-03-20T16:42:19.263Z,10.00
2023-03-20T16:44:46.537Z,12.90
2023-03-20T16:47:20.955Z,10.80
2023-03-20T16:50:02.562Z,10.00
2023-03-20T16:52:32.613Z,11.70
2023-03-20T16:55:01.010Z,12.60
2023-03-20T16:57:33.478Z,12.30
2023-03-20T17:00:06.557Z,15.30
2023-03-20T17:02:41.149Z,27.70
2023-03-20T17:05:13.783Z,15.20
2023-03-20T17:07:42.776Z,12.70
2023-03-20T17:10:21.782Z,11.50
2023-03-20T17:12:51.541Z,16.10
2023-03-20T17:15:24.725Z,13.50
2023-03-20T17:17:52.218Z,13.60
2023-03-20T17:20:21.203Z,16.60
2023-03-20T17:22:48.329Z,19.80
2023-03-20T17:25:16.024Z,20.00
2023-03-20T17:27:43.325Z,20.90
2023-03-20T17:30:25.525Z,19.80
2023-03-20T17:32:53.481Z,20.00
2023-03-20T17:35:20.591Z,18.90
2023-03-20T17:37:49.139Z,20.40
2023-03-20T17:40:22.362Z,23.30
2023-03-20T17:42:49.359Z,21.30
2023-03-20T17:45:20.451Z,20.50
2023-03-20T17:47:48.040Z,20.10
2023-03-20T17:50:25.785Z,16.20
2023-03-20T17:52:53.822Z,15.50
2023-03-20T17:55:21.382Z,14.90
2023-03-20T17:57:49.035Z,17.40
2023-03-20T18:00:20.709Z,21.30
2023-03-20T18:02:48.329Z,20.30
2023-03-20T18:05:15.670Z,20.20
2023-03-20T18:07:42.706Z,18.70
2023-03-20T18:10:25.440Z,14.20
2023-03-20T18:12:52.386Z,13.10
2023-03-20T18:15:19.437Z,11.90
2023-03-20T18:17:46.508Z,11.90
2023-03-20T18:20:34.899Z,12.20
2023-03-20T18:23:02.044Z,11.30
2023-03-20T18:25:29.471Z,12.00
2023-03-20T18:27:58.699Z,11.70
2023-03-20T18:30:29.731Z,12.40
2023-03-20T18:32:56.676Z,13.50
2023-03-20T18:35:23.722Z,13.90
2023-03-20T18:37:50.815Z,13.70
2023-03-20T18:40:29.939Z,15.50
2023-03-20T18:43:00.160Z,15.60
2023-03-20T18:45:29.157Z,19.40
2023-03-20T18:47:57.468Z,20.80
2023-03-20T18:50:33.933Z,18.40
2023-03-20T18:53:03.890Z,16.80
2023-03-20T18:55:31.986Z,38.70
2023-03-20T18:57:59.137Z,26.90
2023-03-20T19:00:38.292Z,24.10
2023-03-20T19:03:06.019Z,22.50
2023-03-20T19:05:33.398Z,21.60
2023-03-20T19:08:01.366Z,22.50
2023-03-20T19:10:40.245Z,21.10
2023-03-20T19:13:07.851Z,23.10
2023-03-20T19:15:37.512Z,26.70
2023-03-20T19:18:15.646Z,30.20
2023-03-20T19:20:45.723Z,26.40
2023-03-20T19:23:15.300Z,24.70
2023-03-20T19:25:44.805Z,23.70
2023-03-20T19:28:42.084Z,26.10
2023-03-20T19:31:10.143Z,28.50
2023-03-20T19:33:39.264Z,31.00
2023-03-20T19:36:08.067Z,30.50
2023-03-20T19:38:38.161Z,29.30
2023-03-20T19:41:05.740Z,29.10
2023-03-20T19:43:33.377Z,27.60
2023-03-20T19:46:00.600Z,28.10
2023-03-20T19:48:46.841Z,30.10
2023-03-20T19:53:50.971Z,32.20
2023-03-20T19:56:22.390Z,31.50
2023-03-20T19:58:50.442Z,34.40
2023-03-20T20:01:24.071Z,33.70
2023-03-20T20:03:53.940Z,35.70
2023-03-20T20:06:22.423Z,37.70
2023-03-20T20:08:50.887Z,38.60
2023-03-20T20:11:20.719Z,37.50
2023-03-20T20:16:40.342Z,36.60
2023-03-20T20:19:07.883Z,36.30
2023-03-20T20:24:22.228Z,36.80
2023-03-20T20:26:55.572Z,35.70
2023-03-20T20:29:27.465Z,36.10
2023-03-20T20:31:54.792Z,37.40
2023-03-20T20:37:56.539Z,35.30
2023-03-20T20:39:57.904Z,34.90
2023-03-20T20:42:26.608Z,35.50
2023-03-20T20:44:53.717Z,34.10
2023-03-20T20:47:21.475Z,36.40
2023-03-20T20:49:49.161Z,36.90
2023-03-20T20:52:16.322Z,36.20
2023-03-20T20:54:43.546Z,36.90
2023-03-20T20:57:12.097Z,37.60
2023-03-20T20:59:40.511Z,37.20
2023-03-20T21:02:12.010Z,35.30
2023-03-20T21:04:41.339Z,33.50
2023-03-20T21:07:12.156Z,36.20
2023-03-20T21:09:40.989Z,39.10
2023-03-20T21:12:14.744Z,37.90
2023-03-20T21:14:50.882Z,34.90
2023-03-20T21:17:17.933Z,34.30
2023-03-20T21:19:45.152Z,34.00
2023-03-20T21:22:16.024Z,34.40
2023-03-20T21:24:43.638Z,33.50
2023-03-20T21:27:14.550Z,31.30
2023-03-20T21:29:43.385Z,33.00
2023-03-20T21:32:17.958Z,33.40
2023-03-20T21:34:45.121Z,33.40
2023-03-20T21:40:07.388Z,29.40
2023-03-20T21:42:35.181Z,26.40
2023-03-20T21:51:15.212Z,32.20
2023-03-20T21:56:56.610Z,30.80
2023-03-20T22:02:07.724Z,31.90
2023-03-20T22:05:22.156Z,31.20
2023-03-20T22:16:31.293Z,32.50
2023-03-20T22:22:00.108Z,29.90
2023-03-20T22:30:12.611Z,29.40
2023-03-20T22:33:10.923Z,28.30
2023-03-20T22:36:02.915Z,28.90
2023-03-20T22:38:55.716Z,28.40
2023-03-20T22:41:50.570Z,28.60
2023-03-20T22:44:34.014Z,26.60
2023-03-20T22:47:24.888Z,26.80
2023-03-20T22:50:11.185Z,28.70
2023-03-20T22:52:48.821Z,28.60
2023-03-20T22:55:17.772Z,27.60
2023-03-20T22:57:59.864Z,28.50
2023-03-20T23:00:32.605Z,27.10
2023-03-20T23:03:13.837Z,28.20
2023-03-20T23:05:44.819Z,29.50
2023-03-20T23:08:12.357Z,28.70
2023-03-20T23:10:44.868Z,30.00
2023-03-20T23:13:12.867Z,29.70
2023-03-20T23:15:39.952Z,30.90
2023-03-20T23:18:07.086Z,31.30
2023-03-20T23:20:34.212Z,29.20
2023-03-20T23:23:01.240Z,27.80
2023-03-20T23:25:38.835Z,25.90
2023-03-20T23:28:10.545Z,25.60
2023-03-20T23:30:46.557Z,26.70
2023-03-20T23:33:17.785Z,25.80
2023-03-20T23:35:44.724Z,25.60
2023-03-20T23:38:11.732Z,24.20
2023-03-20T23:40:38.942Z,23.80
2023-03-20T23:43:06.120Z,25.50
2023-03-20T23:45:32.988Z,26.20
2023-03-20T23:48:00.014Z,25.00
2023-03-20T23:50:34.284Z,24.10
2023-03-20T23:53:17.465Z,25.80
2023-03-20T23:55:47.819Z,27.10
2023-03-20T23:58:15.769Z,26.70
